createdAt,value
2018-01-10T00:00:03.460Z,76.4
2018-01-10T00:01:12.318Z,76.4
2018-01-10T00:02:19.882Z,76.5
2018-01-10T00:03:25.651Z,76.7
2018-01-10T00:04:31.268Z,77
2018-01-10T00:05:37.088Z,77.7
2018-01-10T00:06:51.563Z,77.8
2018-01-10T00:07:58.571Z,77.8
2018-01-10T00:09:05.636Z,78
2018-01-10T00:10:12.170Z,78
2018-01-10T00:11:17.960Z,77.7
2018-01-10T00:12:28.267Z,78
2018-01-10T00:13:34.737Z,78
2018-01-10T00:14:40.048Z,78.1
2018-01-10T00:15:47.246Z,78.3
2018-01-10T00:16:55.706Z,78.2
2018-01-10T00:18:09.507Z,78.2
2018-01-10T00:19:15.816Z,78.4
2018-01-10T00:20:25.294Z,78.4
2018-01-10T00:21:36.371Z,78.7
2018-01-10T00:22:44.075Z,79
2018-01-10T00:23:48.392Z,79.1
2018-01-10T00:24:56.467Z,79.3
2018-01-10T00:26:05.605Z,79.1
2018-01-10T00:27:13.494Z,79.3
2018-01-10T00:28:22.945Z,79.3
2018-01-10T00:29:45.211Z,79.5
2018-01-10T00:30:49.326Z,79.7
2018-01-10T00:31:54.850Z,80.2
2018-01-10T00:32:59.502Z,79.3
2018-01-10T00:34:06.522Z,78.7
2018-01-10T00:35:14.403Z,79.2
2018-01-10T00:36:25.451Z,79.3
2018-01-10T00:37:32.812Z,79.9
2018-01-10T00:38:39.561Z,79.8
2018-01-10T00:39:47.219Z,79.8
2018-01-10T00:41:06.582Z,79.7
2018-01-10T00:42:20.023Z,79.5
2018-01-10T00:43:28.393Z,79.6
2018-01-10T00:44:33.695Z,79.7
2018-01-10T00:45:42.849Z,79.8
2018-01-10T00:46:48.399Z,79.7
2018-01-10T00:47:54.024Z,79.8
2018-01-10T00:48:59.119Z,79.9
2018-01-10T00:50:09.303Z,79.9
2018-01-10T00:51:13.350Z,79.9
2018-01-10T00:52:56.876Z,79.8
2018-01-10T00:54:03.087Z,80
2018-01-10T00:55:08.248Z,79.9
2018-01-10T00:56:13.787Z,80
2018-01-10T00:57:22.058Z,79.5
2018-01-10T00:58:31.529Z,79.2
2018-01-10T00:59:37.356Z,79.5
2018-01-10T01:00:44.865Z,79.8
2018-01-10T01:01:50.781Z,79.8
2018-01-10T01:02:58.201Z,79.5
2018-01-10T01:04:39.096Z,80
2018-01-10T01:05:44.440Z,79.6
2018-01-10T01:06:50.757Z,79.7
2018-01-10T01:07:55.391Z,79.6
2018-01-10T01:09:00.075Z,79.3
2018-01-10T01:10:04.782Z,79.5
2018-01-10T01:11:09.441Z,79.5
2018-01-10T01:12:13.345Z,79.7
2018-01-10T01:13:18.695Z,80.3
2018-01-10T01:14:23.421Z,80.3
2018-01-10T01:15:36.412Z,80.5
2018-01-10T01:16:43.356Z,80.9
2018-01-10T01:17:48.484Z,81.3
2018-01-10T01:18:52.347Z,81.3
2018-01-10T01:19:57.046Z,81.6
2018-01-10T01:21:00.404Z,81.7
2018-01-10T01:22:05.056Z,81.4
2018-01-10T01:23:08.167Z,81.3
2018-01-10T01:24:12.639Z,81.1
2018-01-10T01:25:16.996Z,81.1
2018-01-10T01:26:58.243Z,80.9
2018-01-10T01:28:03.662Z,80.6
2018-01-10T01:29:07.519Z,80.7
2018-01-10T01:30:11.319Z,80.7
2018-01-10T01:31:16.563Z,80.7
2018-01-10T01:32:20.006Z,80.6
2018-01-10T01:33:24.686Z,80.5
2018-01-10T01:34:29.499Z,80.5
2018-01-10T01:35:34.376Z,80.3
2018-01-10T01:36:40.639Z,80.2
2018-01-10T01:38:22.383Z,80.4
2018-01-10T01:39:32.288Z,80.9
2018-01-10T01:40:38.226Z,80.7
2018-01-10T01:41:44.935Z,80.7
2018-01-10T01:42:48.235Z,80.8
2018-01-10T01:43:51.671Z,80.9
2018-01-10T01:44:57.802Z,80.9
2018-01-10T01:46:01.776Z,81
2018-01-10T01:47:05.151Z,81.3
2018-01-10T01:48:08.550Z,81.4
2018-01-10T01:49:20.562Z,81.3
2018-01-10T01:50:23.884Z,81.5
2018-01-10T01:51:29.012Z,81.8
2018-01-10T01:52:33.252Z,81.8
2018-01-10T01:53:38.128Z,81.6
2018-01-10T01:54:42.464Z,81.4
2018-01-10T01:55:50.427Z,81.7
2018-01-10T01:56:55.587Z,82.1
2018-01-10T01:58:01.102Z,82.1
2018-01-10T01:59:09.129Z,82.2
2018-01-10T02:00:18.000Z,81.9
2018-01-10T02:01:24.301Z,82
2018-01-10T02:02:29.688Z,81.9
2018-01-10T02:03:34.956Z,81.8
2018-01-10T02:04:41.295Z,81.9
2018-01-10T02:05:47.151Z,81.8
2018-01-10T02:06:52.334Z,82.1
2018-01-10T02:07:57.484Z,82
2018-01-10T02:09:02.738Z,82.5
2018-01-10T02:10:08.989Z,82.5
2018-01-10T02:11:48.851Z,82.7
2018-01-10T02:12:52.695Z,82.8
2018-01-10T02:13:57.126Z,82.8
2018-01-10T02:15:00.634Z,82.6
2018-01-10T02:16:03.514Z,82.6
2018-01-10T02:17:06.813Z,82.3
2018-01-10T02:18:10.058Z,82.2
2018-01-10T02:19:15.433Z,82.1
2018-01-10T02:20:20.295Z,82.1
2018-01-10T02:21:23.751Z,83
2018-01-10T02:22:30.470Z,82.2
2018-01-10T02:23:33.861Z,82
2018-01-10T02:24:37.753Z,82.1
2018-01-10T02:25:40.992Z,82.1
2018-01-10T02:26:45.282Z,82.1
2018-01-10T02:27:49.839Z,81.9
2018-01-10T02:28:53.171Z,82.1
2018-01-10T02:29:57.039Z,81.9
2018-01-10T02:31:02.929Z,82
2018-01-10T02:32:06.110Z,82
2018-01-10T02:33:14.027Z,82
2018-01-10T02:34:18.735Z,82
2018-01-10T02:35:23.206Z,81.9
2018-01-10T02:36:26.538Z,81.9
2018-01-10T02:37:30.088Z,81.8
2018-01-10T02:38:33.894Z,81.6
2018-01-10T02:39:37.766Z,81.7
2018-01-10T02:40:41.152Z,81.8
2018-01-10T02:41:44.421Z,81.8
2018-01-10T02:42:49.197Z,81.8
2018-01-10T02:43:56.936Z,81.8
2018-01-10T02:45:05.049Z,81.8
2018-01-10T02:46:10.294Z,81.8
2018-01-10T02:47:14.847Z,81.8
2018-01-10T02:48:18.621Z,82.5
2018-01-10T02:49:23.777Z,81.6
2018-01-10T02:50:28.384Z,81.9
2018-01-10T02:51:33.326Z,81.6
2018-01-10T02:52:37.072Z,81.6
2018-01-10T02:53:41.711Z,81.8
2018-01-10T02:54:51.774Z,81.9
2018-01-10T02:55:55.644Z,81.8
2018-01-10T02:57:02.376Z,81.6
2018-01-10T02:58:07.053Z,81.8
2018-01-10T02:59:12.376Z,81.6
2018-01-10T03:00:19.041Z,81.6
2018-01-10T03:01:25.267Z,81.5
2018-01-10T03:02:29.791Z,81.7
2018-01-10T03:03:35.570Z,81.5
2018-01-10T03:04:41.138Z,81.6
2018-01-10T03:05:50.739Z,81.6
2018-01-10T03:06:54.899Z,81.4
2018-01-10T03:08:01.350Z,81.4
2018-01-10T03:09:05.363Z,81.5
2018-01-10T03:10:09.861Z,81.5
2018-01-10T03:11:12.887Z,81.5
2018-01-10T03:12:17.655Z,81.6
2018-01-10T03:13:27.775Z,81.8
2018-01-10T03:14:31.129Z,81.8
2018-01-10T03:15:35.456Z,81.9
2018-01-10T03:16:45.159Z,82
2018-01-10T03:17:49.843Z,82.1
2018-01-10T03:18:56.276Z,82
2018-01-10T03:20:01.733Z,82.2
2018-01-10T03:21:06.086Z,82.2
2018-01-10T03:22:11.383Z,82.1
2018-01-10T03:23:16.941Z,81.9
2018-01-10T03:24:21.838Z,81.9
2018-01-10T03:25:25.996Z,81.8
2018-01-10T03:26:29.919Z,81.8
2018-01-10T03:27:37.353Z,81.8
2018-01-10T03:28:40.715Z,81.7
2018-01-10T03:29:45.118Z,81.8
2018-01-10T03:30:51.309Z,81.7
2018-01-10T03:31:56.170Z,81.8
2018-01-10T03:33:00.372Z,81.7
2018-01-10T03:34:06.518Z,81.7
2018-01-10T03:35:12.772Z,81.9
2018-01-10T03:36:17.852Z,82
2018-01-10T03:37:22.397Z,82.1
2018-01-10T03:38:39.681Z,82.1
2018-01-10T03:39:45.087Z,82.2
2018-01-10T03:40:48.262Z,82.2
2018-01-10T03:41:55.323Z,82.3
2018-01-10T03:43:01.435Z,82.1
2018-01-10T03:44:06.499Z,82.1
2018-01-10T03:45:10.561Z,82
2018-01-10T03:46:18.193Z,82.1
2018-01-10T03:47:22.484Z,82.1
2018-01-10T03:48:27.868Z,82.1
2018-01-10T03:49:40.191Z,82.1
2018-01-10T03:50:43.486Z,82.1
2018-01-10T03:51:46.997Z,82.3
2018-01-10T03:52:50.184Z,82.1
2018-01-10T03:53:53.695Z,82.2
2018-01-10T03:54:57.192Z,82.1
2018-01-10T03:56:01.463Z,82
2018-01-10T03:57:05.978Z,82.1
2018-01-10T03:58:09.612Z,81.9
2018-01-10T03:59:13.095Z,81.9
2018-01-10T04:00:59.133Z,81.9
2018-01-10T04:02:03.404Z,81.8
2018-01-10T04:03:08.332Z,81.9
2018-01-10T04:04:11.922Z,81.9
2018-01-10T04:05:17.206Z,81.7
2018-01-10T04:06:22.884Z,81.8
2018-01-10T04:07:29.038Z,81.9
2018-01-10T04:08:32.792Z,82
2018-01-10T04:09:37.968Z,82
2018-01-10T04:10:43.722Z,82.1
2018-01-10T04:11:56.586Z,82.2
2018-01-10T04:12:59.901Z,82.8
2018-01-10T04:14:07.204Z,82.7
2018-01-10T04:15:12.272Z,82.9
2018-01-10T04:16:20.347Z,82.9
2018-01-10T04:17:25.462Z,83.3
2018-01-10T04:18:30.053Z,83.6
2018-01-10T04:19:35.585Z,83.7
2018-01-10T04:20:40.421Z,84.1
2018-01-10T04:22:04.855Z,83.7
2018-01-10T04:26:43.584Z,84.2
2018-01-10T04:27:49.449Z,84.4
2018-01-10T04:29:04.977Z,84
2018-01-10T04:30:09.536Z,83.9
2018-01-10T04:31:14.062Z,84
2018-01-10T04:32:18.954Z,83.9
2018-01-10T04:33:22.428Z,83.9
2018-01-10T04:34:27.098Z,83.7
2018-01-10T04:35:31.052Z,83.6
2018-01-10T04:36:36.639Z,83.7
2018-01-10T04:37:43.711Z,83.6
2018-01-10T04:38:47.764Z,83.7
2018-01-10T04:39:52.866Z,83.8
2018-01-10T04:40:56.531Z,83.6
2018-01-10T04:42:01.415Z,83.6
2018-01-10T04:43:06.190Z,83.4
2018-01-10T04:44:10.342Z,83.4
2018-01-10T04:45:14.778Z,83.5
2018-01-10T04:46:20.153Z,83.4
2018-01-10T04:47:25.936Z,83.3
2018-01-10T04:48:32.733Z,83.3
2018-01-10T04:49:35.991Z,83.2
2018-01-10T04:50:40.762Z,83.3
2018-01-10T04:51:44.695Z,83.2
2018-01-10T04:52:48.671Z,83.4
2018-01-10T04:53:52.621Z,83.3
2018-01-10T04:54:56.649Z,83.1
2018-01-10T04:56:01.579Z,83.1
2018-01-10T04:57:05.498Z,83.4
2018-01-10T04:58:08.754Z,83.6
2018-01-10T04:59:16.925Z,83.7
2018-01-10T05:00:20.831Z,83.9
2018-01-10T05:01:24.778Z,83.5
2018-01-10T05:02:29.480Z,83.5
2018-01-10T05:03:34.263Z,83.4
2018-01-10T05:04:38.518Z,83.5
2018-01-10T05:05:42.414Z,83.4
2018-01-10T05:06:46.471Z,83.3
2018-01-10T05:07:51.166Z,83.3
2018-01-10T05:08:55.465Z,83.4
2018-01-10T05:10:04.131Z,83.4
2018-01-10T05:11:09.147Z,83.4
2018-01-10T05:12:14.072Z,84.1
2018-01-10T05:13:18.643Z,83.4
2018-01-10T05:14:22.737Z,83.3
2018-01-10T05:15:28.754Z,83.3
2018-01-10T05:16:34.003Z,83.3
2018-01-10T05:17:38.072Z,83.4
2018-01-10T05:18:43.135Z,83.6
2018-01-10T05:19:46.655Z,83.7
2018-01-10T05:20:54.644Z,83.7
2018-01-10T05:22:00.362Z,84.5
2018-01-10T05:23:03.795Z,84.3
2018-01-10T05:24:07.706Z,83.6
2018-01-10T05:25:11.194Z,83.7
2018-01-10T05:26:15.124Z,83.6
2018-01-10T05:27:19.214Z,83.7
2018-01-10T05:28:23.670Z,83.7
2018-01-10T05:29:27.149Z,83.8
2018-01-10T05:30:30.870Z,83.8
2018-01-10T05:31:38.667Z,84
2018-01-10T05:32:42.707Z,83.9
2018-01-10T05:33:47.188Z,83.8
2018-01-10T05:34:51.032Z,83.7
2018-01-10T05:35:54.416Z,83.6
2018-01-10T05:37:00.765Z,83.6
2018-01-10T05:38:17.019Z,83.5
2018-01-10T05:39:21.279Z,83.6
2018-01-10T05:40:24.758Z,83.6
2018-01-10T05:41:30.137Z,83.6
2018-01-10T05:42:36.813Z,83.8
2018-01-10T05:43:40.307Z,83.7
2018-01-10T05:44:47.300Z,83.8
2018-01-10T05:45:51.324Z,83.9
2018-01-10T05:46:55.434Z,83.6
2018-01-10T05:47:59.325Z,84
2018-01-10T05:49:03.114Z,84
2018-01-10T05:50:07.491Z,84.1
2018-01-10T05:51:11.636Z,84.4
2018-01-10T05:52:15.791Z,84.2
2018-01-10T05:53:55.822Z,84
2018-01-10T05:55:02.467Z,83.9
2018-01-10T05:56:06.511Z,83.7
2018-01-10T05:57:10.848Z,83.8
2018-01-10T05:58:15.042Z,83.9
2018-01-10T05:59:18.970Z,83.8
2018-01-10T06:00:24.847Z,83.8
2018-01-10T06:01:30.450Z,83.8
2018-01-10T06:02:36.236Z,83.8
2018-01-10T06:03:41.334Z,83.6
2018-01-10T06:04:49.878Z,83.7
2018-01-10T06:05:54.758Z,83.9
2018-01-10T06:07:00.599Z,84
2018-01-10T06:08:05.862Z,84.1
2018-01-10T06:09:11.875Z,83.7
2018-01-10T06:10:16.527Z,83.7
2018-01-10T06:11:21.858Z,83.8
2018-01-10T06:12:26.516Z,83.8
2018-01-10T06:13:29.982Z,83.9
2018-01-10T06:14:35.647Z,83.9
2018-01-10T06:16:17.052Z,84
2018-01-10T06:17:21.416Z,84
2018-01-10T06:18:25.263Z,84
2018-01-10T06:19:29.766Z,84.1
2018-01-10T06:20:35.069Z,84.2
2018-01-10T06:21:39.294Z,84.3
2018-01-10T06:22:44.804Z,84.1
2018-01-10T06:23:49.801Z,84.2
2018-01-10T06:24:55.078Z,84.4
2018-01-10T06:26:05.410Z,84
2018-01-10T06:27:22.169Z,84.1
2018-01-10T06:28:27.390Z,84.6
2018-01-10T06:29:32.029Z,84.5
2018-01-10T06:30:35.786Z,84.8
2018-01-10T06:31:42.057Z,85.1
2018-01-10T06:32:54.568Z,85.1
2018-01-10T06:34:07.035Z,84.9
2018-01-10T06:35:15.988Z,84.9
2018-01-10T06:36:24.777Z,84.8
2018-01-10T06:37:34.377Z,85.1
2018-01-10T06:38:51.504Z,85.1
2018-01-10T06:39:58.780Z,85.4
2018-01-10T06:41:07.229Z,85.6
2018-01-10T06:42:26.471Z,85.6
2018-01-10T06:43:30.532Z,85.4
2018-01-10T06:44:40.836Z,85.3
2018-01-10T06:45:50.769Z,85.3
2018-01-10T06:46:58.627Z,85.2
2018-01-10T06:48:07.344Z,85.6
2018-01-10T06:49:16.125Z,85.8
2018-01-10T06:51:10.454Z,86
2018-01-10T06:52:19.852Z,86
2018-01-10T06:53:29.689Z,85.9
2018-01-10T06:54:37.523Z,85.4
2018-01-10T06:55:44.734Z,85.3
2018-01-10T06:56:51.125Z,85.4
2018-01-10T06:58:00.280Z,85.6
2018-01-10T06:59:06.629Z,85.4
2018-01-10T07:00:14.747Z,85.6
2018-01-10T07:01:26.743Z,85.5
2018-01-10T07:03:54.490Z,85.6
2018-01-10T07:05:05.656Z,85.6
2018-01-10T07:06:18.840Z,85.3
2018-01-10T07:07:33.347Z,85.4
2018-01-10T07:08:51.335Z,85.4
2018-01-10T07:10:05.586Z,85.3
2018-01-10T07:11:15.967Z,85.3
2018-01-10T07:12:22.868Z,85.4
2018-01-10T07:13:32.614Z,85.3
2018-01-10T07:14:43.753Z,85.6
2018-01-10T07:16:04.046Z,85.5
2018-01-10T07:17:12.282Z,85.7
2018-01-10T07:18:19.992Z,85.7
2018-01-10T07:19:37.369Z,85.8
2018-01-10T07:20:46.528Z,86.8
2018-01-10T07:21:50.937Z,86
2018-01-10T07:22:56.368Z,85.8
2018-01-10T07:24:02.647Z,85.8
2018-01-10T07:25:07.754Z,86
2018-01-10T07:26:16.312Z,86.2
2018-01-10T07:28:01.152Z,86.2
2018-01-10T07:29:07.443Z,86.3
2018-01-10T07:30:12.043Z,85.9
2018-01-10T07:31:19.196Z,85.7
2018-01-10T07:32:26.749Z,85.8
2018-01-10T07:33:34.776Z,85.8
2018-01-10T07:34:40.520Z,85.4
2018-01-10T07:35:49.843Z,85.4
2018-01-10T07:36:55.188Z,85.4
2018-01-10T07:38:01.041Z,85.7
2018-01-10T07:39:11.722Z,85.7
2018-01-10T07:40:18.475Z,85.6
2018-01-10T07:41:26.633Z,85.6
2018-01-10T07:42:33.339Z,85.7
2018-01-10T07:43:41.670Z,85.5
2018-01-10T07:44:59.638Z,85.7
2018-01-10T07:46:05.013Z,85.4
2018-01-10T07:47:17.082Z,85.4
2018-01-10T07:48:26.894Z,85.6
2018-01-10T07:49:34.519Z,85.8
2018-01-10T07:50:48.884Z,85.9
2018-01-10T07:51:57.573Z,85.9
2018-01-10T07:53:04.331Z,85.7
2018-01-10T07:54:14.051Z,85.6
2018-01-10T07:55:22.045Z,85.6
2018-01-10T07:56:39.322Z,85.5
2018-01-10T07:57:45.928Z,85.9
2018-01-10T07:58:55.591Z,85.9
2018-01-10T08:00:02.144Z,85.7
2018-01-10T08:01:06.389Z,85.6
2018-01-10T08:02:15.746Z,85.5
2018-01-10T08:03:22.818Z,85.3
2018-01-10T08:04:27.471Z,85.1
2018-01-10T08:05:31.891Z,84.9
2018-01-10T08:06:35.424Z,84.7
2018-01-10T08:07:39.008Z,84.4
2018-01-10T08:08:43.118Z,84.5
2018-01-10T08:09:46.801Z,84.6
2018-01-10T08:10:51.034Z,84.6
2018-01-10T08:11:54.474Z,84.4
2018-01-10T08:13:02.149Z,84.4
2018-01-10T08:14:05.642Z,84.3
2018-01-10T08:15:09.152Z,84.1
2018-01-10T08:16:13.106Z,84.1
2018-01-10T08:17:20.654Z,84.1
2018-01-10T08:18:25.739Z,84.5
2018-01-10T08:19:30.462Z,84.3
2018-01-10T08:20:38.422Z,84
2018-01-10T08:21:43.911Z,84
2018-01-10T08:22:49.866Z,83.9
2018-01-10T08:24:04.417Z,84.2
2018-01-10T08:25:11.805Z,84.2
2018-01-10T08:26:21.114Z,84.2
2018-01-10T08:27:28.610Z,84.1
2018-01-10T08:28:36.101Z,84.1
2018-01-10T08:29:43.066Z,83.8
2018-01-10T08:30:49.938Z,83.9
2018-01-10T08:31:54.785Z,83.9
2018-01-10T08:33:01.566Z,83.8
2018-01-10T08:34:08.501Z,83.8
2018-01-10T08:35:54.767Z,83.6
2018-01-10T08:37:02.949Z,84
2018-01-10T08:38:11.365Z,83.9
2018-01-10T08:39:19.637Z,83.6
2018-01-10T08:40:30.047Z,83.6
2018-01-10T08:41:38.195Z,83.5
2018-01-10T08:42:46.152Z,84.2
2018-01-10T08:43:56.189Z,83.4
2018-01-10T08:45:05.001Z,83.2
2018-01-10T08:46:17.146Z,83
2018-01-10T08:47:36.620Z,82.8
2018-01-10T08:48:46.705Z,82.7
2018-01-10T08:49:56.167Z,82.7
2018-01-10T08:51:05.855Z,82.2
2018-01-10T08:52:16.026Z,82.3
2018-01-10T08:53:25.400Z,82.3
2018-01-10T08:54:35.364Z,81.8
2018-01-10T08:55:44.872Z,82.1
2018-01-10T08:56:56.212Z,82.5
2018-01-10T08:58:10.390Z,82.8
2018-01-10T08:59:22.238Z,83.2
2018-01-10T09:00:30.129Z,83.6
2018-01-10T09:01:41.618Z,84.4
2018-01-10T09:02:54.112Z,83.5
2018-01-10T09:04:06.555Z,83.3
2018-01-10T09:05:16.858Z,82.8
2018-01-10T09:06:26.558Z,82.8
2018-01-10T09:07:35.112Z,82.3
2018-01-10T09:08:44.008Z,81.7
2018-01-10T09:09:50.819Z,81.8
2018-01-10T09:11:10.205Z,81.5
2018-01-10T09:12:21.901Z,81.9
2018-01-10T09:13:32.708Z,81.5
2018-01-10T09:14:40.683Z,80.9
2018-01-10T09:15:50.274Z,79.8
2018-01-10T09:17:07.668Z,79.2
2018-01-10T09:18:19.750Z,78.7
2018-01-10T09:19:29.090Z,79.7
2018-01-10T09:20:40.423Z,79.3
2018-01-10T09:21:49.397Z,79.5
2018-01-10T09:23:11.280Z,79.4
2018-01-10T09:24:19.650Z,79.8
2018-01-10T09:25:27.579Z,79.5
2018-01-10T09:26:41.857Z,78.9
2018-01-10T09:27:54.934Z,78.5
2018-01-10T09:29:13.617Z,79.3
2018-01-10T09:30:26.249Z,79.3
2018-01-10T09:31:38.996Z,79.4
2018-01-10T09:32:53.065Z,79.6
2018-01-10T09:34:01.218Z,78.9
2018-01-10T09:35:22.144Z,78.2
2018-01-10T09:36:29.001Z,78.5
2018-01-10T09:37:42.675Z,78.4
2018-01-10T09:38:51.844Z,78.6
2018-01-10T09:40:01.667Z,78.6
2018-01-10T09:41:12.978Z,79.1
2018-01-10T09:42:24.645Z,78.8
2018-01-10T09:43:35.798Z,78.4
2018-01-10T09:44:46.865Z,79.2
2018-01-10T09:45:57.909Z,78.9
2018-01-10T09:47:16.382Z,79
2018-01-10T09:48:29.142Z,78.6
2018-01-10T09:49:36.268Z,79.4
2018-01-10T09:50:39.581Z,79.2
2018-01-10T09:51:49.104Z,79.2
2018-01-10T09:52:57.593Z,79
2018-01-10T09:54:09.200Z,78.7
2018-01-10T09:55:21.678Z,78.4
2018-01-10T09:56:40.984Z,78.6
2018-01-10T09:57:53.916Z,79
2018-01-10T09:59:11.306Z,79
2018-01-10T10:00:22.614Z,78.4
2018-01-10T10:01:33.436Z,78.5
2018-01-10T10:02:41.160Z,78.7
2018-01-10T10:03:46.410Z,78.6
2018-01-10T10:04:54.386Z,78.2
2018-01-10T10:06:07.432Z,78
2018-01-10T10:07:18.921Z,77.4
2018-01-10T10:08:32.305Z,77.6
2018-01-10T10:09:43.728Z,78.1
2018-01-10T10:11:35.985Z,78.3
2018-01-10T10:12:56.912Z,78.3
2018-01-10T10:14:09.592Z,78
2018-01-10T10:15:21.750Z,78.1
2018-01-10T10:16:33.101Z,77.8
2018-01-10T10:17:42.393Z,78.1
2018-01-10T10:18:49.084Z,77
2018-01-10T10:20:01.324Z,76.3
2018-01-10T10:21:12.225Z,76.6
2018-01-10T10:22:24.989Z,76.4
2018-01-10T10:23:41.818Z,77.2
2018-01-10T10:24:51.347Z,77.1
2018-01-10T10:26:03.560Z,76.7
2018-01-10T10:27:16.581Z,76.8
2018-01-10T10:28:23.179Z,77
2018-01-10T10:29:27.554Z,76.8
2018-01-10T10:30:32.585Z,77.1
2018-01-10T10:31:35.928Z,76.9
2018-01-10T10:32:39.366Z,76.5
2018-01-10T10:33:44.866Z,76.6
2018-01-10T10:34:51.888Z,76.8
2018-01-10T10:35:56.134Z,76.5
2018-01-10T10:37:00.741Z,76.9
2018-01-10T10:38:08.068Z,76.5
2018-01-10T10:39:11.439Z,77.2
2018-01-10T10:40:15.446Z,77.1
2018-01-10T10:41:20.764Z,78.1
2018-01-10T10:42:24.148Z,76.9
2018-01-10T10:43:27.795Z,75.8
2018-01-10T10:44:31.472Z,76.1
2018-01-10T10:46:15.423Z,76.5
2018-01-10T10:47:21.176Z,76.5
2018-01-10T10:48:27.003Z,76.6
2018-01-10T10:49:32.224Z,76.8
2018-01-10T10:50:37.989Z,77.5
2018-01-10T10:51:45.727Z,77.1
2018-01-10T10:52:50.918Z,76.5
2018-01-10T10:53:55.002Z,76.5
2018-01-10T10:55:01.287Z,77.4
2018-01-10T10:56:07.354Z,77.1
2018-01-10T10:58:25.802Z,76.4
2018-01-10T10:59:35.314Z,77.2
2018-01-10T11:00:45.132Z,76.4
2018-01-10T11:01:57.094Z,76.8
2018-01-10T11:03:06.779Z,76.7
2018-01-10T11:04:13.415Z,76.5
2018-01-10T11:05:21.487Z,77.1
2018-01-10T11:06:32.654Z,76.3
2018-01-10T11:07:38.911Z,76.6
2018-01-10T11:08:50.091Z,76.5
2018-01-10T11:10:04.060Z,76.2
2018-01-10T11:11:12.736Z,75.6
2018-01-10T11:12:23.780Z,75.7
2018-01-10T11:13:36.899Z,76.2
2018-01-10T11:14:47.093Z,76.4
2018-01-10T11:15:54.315Z,76.7
2018-01-10T11:17:05.300Z,76.2
2018-01-10T11:18:14.476Z,75.9
2018-01-10T11:19:24.484Z,75.8
2018-01-10T11:20:33.589Z,75.1
2018-01-10T11:22:21.658Z,75.3
2018-01-10T11:23:36.522Z,75.6
2018-01-10T11:24:44.735Z,75.9
2018-01-10T11:25:56.819Z,75.5
2018-01-10T11:27:04.107Z,74.6
2018-01-10T11:28:14.365Z,74.6
2018-01-10T11:29:27.601Z,75
2018-01-10T11:30:34.127Z,75.1
2018-01-10T11:31:45.454Z,74.7
2018-01-10T11:32:55.980Z,74.6
2018-01-10T11:34:14.130Z,75
2018-01-10T11:35:21.857Z,75.1
2018-01-10T11:36:31.099Z,75.2
2018-01-10T11:37:40.745Z,75.1
2018-01-10T11:38:51.338Z,75
2018-01-10T11:40:02.718Z,74.9
2018-01-10T11:41:12.666Z,75
2018-01-10T11:42:21.655Z,75.3
2018-01-10T11:43:31.090Z,75.3
2018-01-10T11:44:41.389Z,74.7
2018-01-10T11:46:38.357Z,75
2018-01-10T11:47:50.189Z,75.1
2018-01-10T11:49:01.132Z,75.2
2018-01-10T11:50:07.285Z,75.3
2018-01-10T11:51:18.316Z,75.2
2018-01-10T11:52:29.272Z,75
2018-01-10T11:53:36.611Z,75.3
2018-01-10T11:54:51.692Z,75.7
2018-01-10T11:56:06.993Z,75.7
2018-01-10T11:57:18.098Z,75.5
2018-01-10T11:58:31.874Z,75.5
2018-01-10T11:59:38.804Z,75.7
2018-01-10T12:00:48.466Z,75.7
2018-01-10T12:01:59.977Z,76.3
2018-01-10T12:03:08.166Z,75.2
2018-01-10T12:04:17.151Z,75.1
2018-01-10T12:05:24.807Z,75
2018-01-10T12:06:33.322Z,75.5
2018-01-10T12:07:38.626Z,75.5
2018-01-10T12:08:42.074Z,75.3
2018-01-10T12:09:50.171Z,75.5
2018-01-10T12:10:54.944Z,75.6
2018-01-10T12:11:59.732Z,75.7
2018-01-10T12:13:03.141Z,75.6
2018-01-10T12:14:06.992Z,75.6
2018-01-10T12:15:12.902Z,75.8
2018-01-10T12:16:17.295Z,75.9
2018-01-10T12:17:21.395Z,75.9
2018-01-10T12:18:26.437Z,76.3
2018-01-10T12:19:30.890Z,76.4
2018-01-10T12:20:38.616Z,76.5
2018-01-10T12:21:42.552Z,76.6
2018-01-10T12:22:46.674Z,76.5
2018-01-10T12:23:51.861Z,76.5
2018-01-10T12:24:55.678Z,76.5
2018-01-10T12:25:59.076Z,76.5
2018-01-10T12:27:03.044Z,76.4
2018-01-10T12:28:07.530Z,76.2
2018-01-10T12:29:11.267Z,76.1
2018-01-10T12:30:14.813Z,76.1
2018-01-10T12:31:25.103Z,76.1
2018-01-10T12:32:28.558Z,76.3
2018-01-10T12:33:31.999Z,76
2018-01-10T12:34:36.206Z,76.1
2018-01-10T12:35:40.050Z,75.9
2018-01-10T12:36:43.585Z,76
2018-01-10T12:37:47.042Z,76.6
2018-01-10T12:38:50.516Z,76.6
2018-01-10T12:39:53.961Z,77.1
2018-01-10T12:40:58.184Z,77
2018-01-10T12:42:06.033Z,77.2
2018-01-10T12:43:09.480Z,77.5
2018-01-10T12:44:12.669Z,77
2018-01-10T12:45:16.091Z,77.2
2018-01-10T12:46:19.452Z,77.4
2018-01-10T12:47:22.817Z,77.2
2018-01-10T12:48:26.260Z,77.5
2018-01-10T12:49:29.518Z,77.6
2018-01-10T12:50:32.913Z,77.6
2018-01-10T12:51:36.397Z,77.4
2018-01-10T12:52:43.345Z,77.4
2018-01-10T12:53:46.771Z,77.6
2018-01-10T12:54:50.027Z,77.6
2018-01-10T12:55:54.098Z,77.5
2018-01-10T12:56:57.537Z,77.5
2018-01-10T12:58:02.666Z,77.5
2018-01-10T12:59:08.045Z,77.7
2018-01-10T13:00:11.355Z,77.5
2018-01-10T13:01:15.378Z,77.7
2018-01-10T13:02:19.497Z,77.8
2018-01-10T13:03:58.957Z,77.8
2018-01-10T13:05:02.650Z,77.7
2018-01-10T13:06:09.120Z,77.9
2018-01-10T13:07:13.089Z,77.8
2018-01-10T13:08:17.219Z,78.7
2018-01-10T13:09:21.453Z,77.7
2018-01-10T13:10:24.862Z,77.8
2018-01-10T13:11:28.324Z,78
2018-01-10T13:12:31.628Z,78
2018-01-10T13:13:34.809Z,78
2018-01-10T13:14:43.391Z,78.4
2018-01-10T13:15:46.768Z,78.3
2018-01-10T13:16:50.796Z,78.2
2018-01-10T13:17:54.633Z,78.1
2018-01-10T13:18:58.670Z,78
2018-01-10T13:20:02.299Z,78.1
2018-01-10T13:21:05.809Z,78.1
2018-01-10T13:22:08.965Z,78.3
2018-01-10T13:23:12.894Z,78.3
2018-01-10T13:24:16.438Z,78.3
2018-01-10T13:25:23.304Z,78.2
2018-01-10T13:26:27.326Z,78.3
2018-01-10T13:27:30.633Z,78.3
2018-01-10T13:28:35.428Z,78.4
2018-01-10T13:29:39.527Z,78.4
2018-01-10T13:30:42.893Z,78.4
2018-01-10T13:31:48.651Z,78.5
2018-01-10T13:32:52.046Z,78.6
2018-01-10T13:33:55.445Z,78.5
2018-01-10T13:34:58.637Z,78.4
2018-01-10T13:36:05.813Z,78.3
2018-01-10T13:37:10.747Z,78.4
2018-01-10T13:38:14.758Z,78.4
2018-01-10T13:39:20.364Z,78.5
2018-01-10T13:40:25.685Z,78.5
2018-01-10T13:41:29.081Z,78.6
2018-01-10T13:42:32.683Z,78.5
2018-01-10T13:43:36.139Z,78.4
2018-01-10T13:44:40.192Z,78.4
2018-01-10T13:45:43.428Z,78.4
2018-01-10T13:46:50.975Z,78.4
2018-01-10T13:47:55.227Z,78.5
2018-01-10T13:49:01.787Z,78.5
2018-01-10T13:50:10.713Z,78.5
2018-01-10T13:51:18.673Z,78.6
2018-01-10T13:52:27.397Z,78.6
2018-01-10T13:53:34.753Z,78.5
2018-01-10T13:54:43.714Z,78.5
2018-01-10T13:55:53.661Z,78.3
2018-01-10T13:57:02.197Z,78.3
2018-01-10T13:58:13.928Z,78.3
2018-01-10T13:59:20.394Z,79
2018-01-10T14:00:23.460Z,78.2
2018-01-10T14:01:31.670Z,78.2
2018-01-10T14:02:36.338Z,78
2018-01-10T14:03:40.269Z,78
2018-01-10T14:04:49.037Z,77.8
2018-01-10T14:05:56.371Z,77.7
2018-01-10T14:07:00.855Z,77.9
2018-01-10T14:08:09.920Z,77.7
2018-01-10T14:09:23.944Z,77.7
2018-01-10T14:10:31.479Z,77.8
2018-01-10T14:11:37.874Z,77.7
2018-01-10T14:12:44.882Z,77.6
2018-01-10T14:13:55.162Z,77.3
2018-01-10T14:15:04.958Z,77.4
2018-01-10T14:16:12.587Z,77.5
2018-01-10T14:17:16.098Z,77.5
2018-01-10T14:18:20.806Z,77.6
2018-01-10T14:19:29.610Z,77.6
2018-01-10T14:20:44.303Z,77.6
2018-01-10T14:21:49.469Z,77.7
2018-01-10T14:22:58.222Z,77.7
2018-01-10T14:24:05.057Z,77.7
2018-01-10T14:25:09.785Z,77.7
2018-01-10T14:26:14.227Z,77.8
2018-01-10T14:27:18.212Z,77.7
2018-01-10T14:28:21.687Z,77.8
2018-01-10T14:29:25.078Z,77.9
2018-01-10T14:30:28.635Z,78
2018-01-10T14:31:36.370Z,78.1
2018-01-10T14:32:40.726Z,78.3
2018-01-10T14:33:45.285Z,78.3
2018-01-10T14:34:48.769Z,78.4
2018-01-10T14:35:52.772Z,78.4
2018-01-10T14:36:56.848Z,78.4
2018-01-10T14:38:00.281Z,78.5
2018-01-10T14:39:05.052Z,78.6
2018-01-10T14:40:08.684Z,78.8
2018-01-10T14:41:12.166Z,78.9
2018-01-10T14:42:21.352Z,78.9
2018-01-10T14:43:24.604Z,79
2018-01-10T14:44:28.031Z,79
2018-01-10T14:45:31.415Z,79.1
2018-01-10T14:46:34.906Z,79.2
2018-01-10T14:47:38.300Z,79.2
2018-01-10T14:48:43.047Z,79.4
2018-01-10T14:49:46.575Z,79.3
2018-01-10T14:50:49.800Z,79.5
2018-01-10T14:51:53.291Z,79.6
2018-01-10T14:53:01.253Z,79.7
2018-01-10T14:54:04.700Z,79.7
2018-01-10T14:55:07.960Z,79.8
2018-01-10T14:56:15.240Z,79.8
2018-01-10T14:57:20.726Z,79.9
2018-01-10T14:58:25.136Z,80
2018-01-10T14:59:30.333Z,79.9
2018-01-10T15:00:33.957Z,80
2018-01-10T15:01:37.432Z,80.2
2018-01-10T15:02:41.464Z,80
2018-01-10T15:03:49.772Z,80
2018-01-10T15:04:53.345Z,80
2018-01-10T15:05:56.915Z,79.9
2018-01-10T15:07:01.482Z,80
2018-01-10T15:08:05.060Z,79.9
2018-01-10T15:09:08.474Z,79.9
2018-01-10T15:10:12.602Z,79.7
2018-01-10T15:11:16.032Z,79.6